Time;durP1;ratioP1;P1;durP2;ratioP2;P2;SDS_P1;SDS_P2;PMS_P1;PMS_P2;Temp;Humidity;BMP_temperature;BMP_pressure;BME280_temperature;BME280_humidity;BME280_pressure;Samples;Min_cycle;Max_cycle;Signal;HPM_P1;HPM_P2
2021/07/25 00:02:27;;;;;;;29.90;21.40;;;;;;;20.68;100.00;100339.25;4997874;28;20458;-60
2021/07/25 00:04:56;;;;;;;31.37;21.10;;;;;;;20.67;100.00;100337.50;4993360;28;20509;-59
2021/07/25 00:07:23;;;;;;;30.67;22.83;;;;;;;20.85;99.22;100336.53;4994943;28;20461;-59
2021/07/25 00:09:51;;;;;;;30.83;21.10;;;;;;;20.87;99.60;100338.25;4986272;28;20493;-60
2021/07/25 00:12:18;;;;;;;26.37;18.27;;;;;;;20.83;98.98;100330.41;5004464;28;20450;-60
2021/07/25 00:14:46;;;;;;;28.03;18.43;;;;;;;20.82;99.42;100331.28;4993711;28;20474;-60
2021/07/25 00:17:14;;;;;;;41.60;29.17;;;;;;;20.77;100.00;100333.94;4997151;28;20750;-59
2021/07/25 00:19:43;;;;;;;24.27;17.90;;;;;;;20.60;100.00;100321.81;4987370;28;21315;-60
2021/07/25 00:22:10;;;;;;;27.73;19.83;;;;;;;20.55;100.00;100322.75;5007933;28;20549;-60
2021/07/25 00:24:39;;;;;;;28.17;20.40;;;;;;;20.58;100.00;100328.84;4990858;28;20485;-60
2021/07/25 00:27:07;;;;;;;26.10;18.93;;;;;;;20.54;100.00;100321.88;5008253;28;20458;-59
2021/07/25 00:29:34;;;;;;;26.70;18.03;;;;;;;20.67;100.00;100319.16;4993599;28;20480;-60
2021/07/25 00:32:03;;;;;;;30.87;20.23;;;;;;;20.63;100.00;100318.31;4994849;28;21011;-59
2021/07/25 00:34:31;;;;;;;27.67;18.70;;;;;;;20.60;100.00;100320.94;4993490;28;20493;-60
2021/07/25 00:37:00;;;;;;;26.07;18.60;;;;;;;20.69;100.00;100320.00;4997324;28;20466;-59
2021/07/25 00:39:28;;;;;;;31.20;21.73;;;;;;;20.69;99.29;100320.00;4994169;28;20487;-60
2021/07/25 00:41:56;;;;;;;29.53;21.10;;;;;;;20.61;100.00;100318.31;4996956;28;20485;-59
2021/07/25 00:44:23;;;;;;;27.60;17.80;;;;;;;20.67;100.00;100327.03;4982746;28;20473;-60
2021/07/25 00:46:56;;;;;;;31.73;20.10;;;;;;;20.68;100.00;100328.75;4996449;28;20471;-59
2021/07/25 00:49:23;;;;;;;26.73;16.67;;;;;;;20.36;100.00;100347.28;4991650;28;20988;-59
2021/07/25 00:51:51;;;;;;;28.60;20.70;;;;;;;20.58;100.00;100328.84;4996037;28;20492;-59
2021/07/25 00:54:22;;;;;;;36.27;25.37;;;;;;;20.39;100.00;100332.44;4984377;28;20463;-60
2021/07/25 00:56:50;;;;;;;28.20;19.30;;;;;;;20.49;100.00;100332.38;5009365;28;20560;-60
2021/07/25 00:59:18;;;;;;;25.43;18.37;;;;;;;20.58;100.00;100341.94;4990103;28;20486;-60
2021/07/25 01:01:46;;;;;;;23.67;17.00;;;;;;;20.52;100.00;100336.72;4996486;28;20529;-59
2021/07/25 01:04:25;;;;;;;33.20;21.50;;;;;;;20.61;100.00;100328.81;4992918;28;20462;-60
2021/07/25 01:07:01;;;;;;;28.30;18.60;;;;;;;20.44;100.00;100325.41;4995265;28;20462;-59
2021/07/25 01:09:36;;;;;;;23.50;18.07;;;;;;;20.39;100.00;100337.69;4991387;28;20479;-60
2021/07/25 01:12:06;;;;;;;25.30;18.80;;;;;;;20.35;100.00;100306.25;4993444;28;20481;-59
2021/07/25 01:14:35;;;;;;;30.43;17.60;;;;;;;20.44;100.00;100304.44;4994660;28;20470;-60
2021/07/25 01:17:24;;;;;;;24.77;17.63;;;;;;;20.56;98.98;100314.84;4993473;28;20540;-59
2021/07/25 01:19:54;;;;;;;28.80;16.50;;;;;;;20.63;97.67;100311.31;4991483;28;20487;-60
2021/07/25 01:22:22;;;;;;;22.87;16.00;;;;;;;20.60;97.08;100311.34;4996411;28;20469;-59
2021/07/25 01:24:50;;;;;;;22.20;15.80;;;;;;;20.65;97.12;100311.31;4988898;28;20500;-60
2021/07/25 01:27:26;;;;;;;26.33;17.43;;;;;;;20.72;97.20;100314.75;4996679;28;20458;-59
2021/07/25 01:29:55;;;;;;;22.23;15.73;;;;;;;20.80;96.61;100312.09;4986970;28;20500;-60
2021/07/25 01:32:22;;;;;;;24.77;17.13;;;;;;;20.75;96.34;100304.25;4985377;28;22149;-60
2021/07/25 01:34:54;;;;;;;22.47;16.07;;;;;;;20.82;96.36;100300.69;4982930;28;20489;-60
2021/07/25 01:37:21;;;;;;;24.70;16.97;;;;;;;20.90;97.03;100300.66;5005736;28;20884;-59
2021/07/25 01:39:49;;;;;;;21.53;15.90;;;;;;;20.73;97.70;100299.03;4992803;28;20772;-60
2021/07/25 01:42:26;;;;;;;23.30;15.93;;;;;;;20.77;96.97;100297.25;4996291;28;20469;-60
2021/07/25 01:44:54;;;;;;;31.87;16.37;;;;;;;20.87;96.36;100292.84;4991974;28;20489;-60
2021/07/25 01:47:22;;;;;;;22.93;16.10;;;;;;;20.86;96.15;100291.97;4988510;28;20481;-60
2021/07/25 01:49:49;;;;;;;25.63;16.27;;;;;;;20.91;96.44;100292.78;4963414;28;20482;-60
2021/07/25 01:52:18;;;;;;;22.57;15.33;;;;;;;20.93;95.59;100291.91;4976468;28;20561;-59
2021/07/25 01:54:46;;;;;;;23.60;16.53;;;;;;;20.91;95.25;100290.16;4978331;28;20532;-59
2021/07/25 01:57:14;;;;;;;26.13;16.37;;;;;;;20.81;95.26;100288.47;4995838;28;20465;-59
2021/07/25 01:59:42;;;;;;;24.23;17.60;;;;;;;20.81;96.18;100291.09;4992611;28;20792;-60
2021/07/25 02:02:09;;;;;;;25.93;16.23;;;;;;;20.88;95.70;100290.19;4995502;28;20462;-59
2021/07/25 02:04:37;;;;;;;22.67;15.73;;;;;;;20.73;95.48;100290.28;4995283;28;20469;-59
2021/07/25 02:07:05;;;;;;;19.30;15.33;;;;;;;20.75;95.75;100305.13;4995752;28;20462;-60
2021/07/25 02:09:35;;;;;;;27.77;16.17;;;;;;;20.77;95.15;100308.59;4989693;28;20734;-60
2021/07/25 02:12:04;;;;;;;21.97;15.83;;;;;;;20.78;95.14;100307.69;4995856;28;20796;-60
2021/07/25 02:14:31;;;;;;;24.43;16.30;;;;;;;20.77;94.98;100303.34;4991691;28;20482;-60
2021/07/25 02:16:59;;;;;;;28.57;16.03;;;;;;;20.80;94.73;100297.22;4995509;28;20529;-60
2021/07/25 02:19:27;;;;;;;24.20;16.77;;;;;;;20.73;94.92;100308.63;4985961;28;20946;-60
2021/07/25 02:21:55;;;;;;;22.20;16.00;;;;;;;20.64;95.05;100312.19;4995603;28;20482;-60
2021/07/25 02:24:23;;;;;;;23.77;15.87;;;;;;;20.65;94.88;100308.69;4992401;28;22002;-60
2021/07/25 02:26:52;;;;;;;34.40;21.63;;;;;;;20.78;95.22;100309.47;4997907;28;20464;-60
2021/07/25 02:29:20;;;;;;;24.07;16.50;;;;;;;20.78;94.44;100314.72;4992317;28;20463;-59
2021/07/25 02:31:48;;;;;;;24.00;16.80;;;;;;;20.73;94.45;100311.25;5010820;28;20484;-60
2021/07/25 02:34:15;;;;;;;32.00;20.00;;;;;;;20.79;94.57;100313.84;5012226;28;20759;-60
2021/07/25 02:36:43;;;;;;;29.27;16.10;;;;;;;20.81;94.07;100316.44;5014164;28;20462;-60
2021/07/25 02:39:11;;;;;;;22.70;16.90;;;;;;;20.83;93.70;100317.28;5013505;28;20567;-60
2021/07/25 02:41:39;;;;;;;26.97;14.93;;;;;;;20.75;93.68;100323.47;5015120;28;20507;-60
2021/07/25 02:44:08;;;;;;;25.07;16.80;;;;;;;20.81;94.00;100325.16;5011460;28;20457;-60
2021/07/25 02:46:36;;;;;;;22.77;15.90;;;;;;;20.80;93.76;100326.06;5014337;28;20499;-59
2021/07/25 02:49:04;;;;;;;22.23;15.30;;;;;;;20.82;93.51;100318.19;5012243;28;20449;-61
2021/07/25 02:51:31;;;;;;;26.20;16.43;;;;;;;20.82;93.79;100319.03;5015115;28;20546;-60
2021/07/25 02:53:59;;;;;;;26.53;17.83;;;;;;;20.84;93.88;100311.16;5014721;28;20465;-59
2021/07/25 02:56:26;;;;;;;22.97;16.77;;;;;;;20.75;93.86;100319.97;5011266;28;20484;-60
2021/07/25 02:58:54;;;;;;;23.37;16.00;;;;;;;20.78;94.11;100330.44;5015157;28;20709;-60
2021/07/25 03:01:23;;;;;;;24.87;16.00;;;;;;;20.75;94.44;100327.81;5009578;28;20493;-60
2021/07/25 03:03:50;;;;;;;25.60;17.73;;;;;;;20.82;94.48;100331.28;5014544;28;20461;-60
2021/07/25 03:06:18;;;;;;;24.90;16.70;;;;;;;20.68;95.59;100341.88;5011495;28;20481;-60
2021/07/25 03:08:46;;;;;;;32.07;22.90;;;;;;;20.63;95.79;100353.22;5014999;28;20461;-60
2021/07/25 03:11:13;;;;;;;27.83;18.33;;;;;;;20.63;95.99;100355.84;5011113;28;20488;-60
2021/07/25 03:13:41;;;;;;;23.20;16.87;;;;;;;20.58;96.57;100365.53;5015111;28;20469;-60
2021/07/25 03:16:09;;;;;;;35.93;24.70;;;;;;;20.60;96.62;100363.75;5011306;28;20535;-60
2021/07/25 03:18:38;;;;;;;28.97;21.77;;;;;;;20.70;96.33;100363.69;5014996;28;20461;-59
2021/07/25 03:21:06;;;;;;;23.10;16.63;;;;;;;20.68;96.43;100361.09;4989631;28;20528;-60
2021/07/25 03:23:34;;;;;;;22.80;16.87;;;;;;;20.63;96.30;100358.47;5014818;28;20910;-60
2021/07/25 03:26:01;;;;;;;32.00;18.90;;;;;;;20.72;96.46;100357.56;5010668;28;20493;-60
2021/07/25 03:28:29;;;;;;;27.73;20.00;;;;;;;20.76;95.93;100363.63;5014557;28;20471;-59
2021/07/25 03:30:57;;;;;;;26.80;17.57;;;;;;;20.71;96.22;100365.44;4999029;28;20486;-59
2021/07/25 03:33:24;;;;;;;24.40;17.87;;;;;;;20.76;96.20;100366.25;4994931;28;20466;-60
2021/07/25 03:35:53;;;;;;;34.53;23.00;;;;;;;20.72;96.00;100365.41;4995807;28;20496;-59
2021/07/25 03:38:21;;;;;;;23.87;18.00;;;;;;;20.71;96.12;100365.44;4998873;28;20466;-59
2021/07/25 03:40:48;;;;;;;23.93;17.03;;;;;;;20.71;96.35;100374.16;4996588;28;20488;-60
2021/07/25 03:43:16;;;;;;;29.60;19.10;;;;;;;20.60;97.40;100371.63;4998828;28;20458;-59
2021/07/25 03:45:45;;;;;;;21.97;17.33;;;;;;;20.61;97.20;100370.72;4995557;28;20482;-60
2021/07/25 03:48:13;;;;;;;25.97;17.97;;;;;;;20.54;98.15;100363.78;4998582;28;20794;-60
2021/07/25 03:50:41;;;;;;;24.60;17.27;;;;;;;20.69;97.44;100375.03;4989796;28;20482;-60
2021/07/25 03:53:10;;;;;;;25.70;18.30;;;;;;;20.60;98.15;100379.47;4998215;28;20464;-59
2021/07/25 03:55:39;;;;;;;29.47;19.93;;;;;;;20.64;97.20;100378.59;4992737;28;20503;-59
2021/07/25 03:58:08;;;;;;;24.50;17.53;;;;;;;20.63;97.23;100374.19;4998379;28;20462;-59
2021/07/25 04:00:35;;;;;;;27.97;18.30;;;;;;;20.61;97.85;100378.59;4991742;28;20494;-60
2021/07/25 04:03:03;;;;;;;29.50;18.77;;;;;;;20.55;98.34;100373.38;5001199;28;20495;-59
2021/07/25 04:05:31;;;;;;;25.53;19.80;;;;;;;20.64;97.82;100375.09;4995160;28;20516;-60
2021/07/25 04:07:59;;;;;;;27.03;21.27;;;;;;;20.78;96.99;100377.63;4998170;28;20462;-59
2021/07/25 04:10:27;;;;;;;26.90;19.93;;;;;;;20.74;97.41;100382.03;4994197;28;20488;-60
2021/07/25 04:12:55;;;;;;;25.63;18.27;;;;;;;20.57;97.93;100392.59;4998492;28;20465;-59
2021/07/25 04:15:23;;;;;;;22.60;17.73;;;;;;;20.60;98.25;100386.44;4994827;28;20596;-60
2021/07/25 04:17:50;;;;;;;28.60;20.50;;;;;;;20.60;98.27;100384.72;4998231;28;20464;-59
2021/07/25 04:20:18;;;;;;;29.77;19.97;;;;;;;20.35;98.99;100390.06;4994974;28;20515;-59
2021/07/25 04:22:45;;;;;;;29.80;20.43;;;;;;;20.28;100.00;100392.72;4997544;28;20465;-59
2021/07/25 04:25:13;;;;;;;30.63;20.93;;;;;;;20.27;100.00;100394.50;4992541;28;20498;-59
2021/07/25 04:27:43;;;;;;;28.83;21.70;;;;;;;20.36;100.00;100402.28;5007344;28;20468;-59
2021/07/25 04:30:11;;;;;;;33.33;22.00;;;;;;;20.36;100.00;100402.28;4996001;28;20979;-59
2021/07/25 04:32:40;;;;;;;34.00;22.00;;;;;;;20.45;100.00;100406.63;5017314;28;20970;-59
2021/07/25 04:35:09;;;;;;;29.63;21.57;;;;;;;20.59;99.74;100411.81;5014433;28;20492;-59
2021/07/25 04:37:47;;;;;;;35.73;23.97;;;;;;;20.66;99.03;100410.00;5017080;28;20864;-59
2021/07/25 04:40:16;;;;;;;31.73;22.40;;;;;;;20.53;100.00;100414.44;5013348;28;20488;-59
2021/07/25 04:42:49;;;;;;;34.43;25.17;;;;;;;20.55;100.00;100423.16;5016752;28;20485;-59
2021/07/25 04:45:20;;;;;;;42.30;27.60;;;;;;;20.51;100.00;100429.31;5012249;28;20503;-59
2021/07/25 04:47:52;;;;;;;35.97;25.30;;;;;;;20.55;100.00;100423.16;5022743;28;20498;-59
2021/07/25 04:50:23;;;;;;;36.33;25.57;;;;;;;20.69;100.00;100424.84;5013566;28;20486;-59
2021/07/25 04:52:52;;;;;;;40.37;28.30;;;;;;;20.46;100.00;100433.72;5017044;28;20464;-60
2021/07/25 04:55:23;;;;;;;43.33;29.77;;;;;;;20.46;100.00;100433.72;5009460;28;20930;-59
2021/07/25 04:57:56;;;;;;;43.87;29.90;;;;;;;20.29;100.00;100437.25;5016710;28;20513;-60
2021/07/25 05:00:24;;;;;;;49.60;32.17;;;;;;;20.38;100.00;100436.34;5007030;28;20492;-60
2021/07/25 05:02:57;;;;;;;51.77;32.90;;;;;;;20.56;100.00;100435.38;5016299;28;20489;-59
2021/07/25 05:05:25;;;;;;;48.87;32.30;;;;;;;20.56;100.00;100439.78;5012563;28;20491;-59
2021/07/25 05:07:54;;;;;;;48.17;32.13;;;;;;;20.62;100.00;100440.59;5021821;28;20468;-59
2021/07/25 05:10:23;;;;;;;47.63;31.77;;;;;;;20.73;100.00;100447.53;5012570;28;20824;-59
2021/07/25 05:12:56;;;;;;;51.67;30.40;;;;;;;20.88;100.00;100446.63;5022195;28;20458;-59
2021/07/25 05:15:30;;;;;;;44.97;29.50;;;;;;;20.84;99.92;100434.38;5013470;28;20492;-59
2021/07/25 05:18:02;;;;;;;48.40;30.57;;;;;;;21.03;100.00;100436.03;5021294;28;20461;-59
2021/07/25 05:20:32;;;;;;;68.80;44.90;;;;;;;21.06;99.48;100434.28;5011477;28;20482;-59
2021/07/25 05:23:03;;;;;;;72.13;50.10;;;;;;;21.26;98.57;100431.50;5016444;28;20481;-59
2021/07/25 05:25:32;;;;;;;42.27;29.97;;;;;;;21.00;98.32;100437.78;5013094;28;20485;-59
2021/07/25 05:28:06;;;;;;;44.00;30.53;;;;;;;20.97;99.58;100445.69;5016638;28;20468;-59
2021/07/25 05:30:37;;;;;;;49.03;32.87;;;;;;;21.21;98.63;100436.78;5006120;28;21308;-59
2021/07/25 05:33:07;;;;;;;43.27;29.93;;;;;;;21.11;99.02;100445.59;4996601;28;20462;-59
2021/07/25 05:35:35;;;;;;;48.37;30.00;;;;;;;20.83;99.81;100449.25;4993094;28;20504;-60
2021/07/25 05:38:03;;;;;;;49.77;32.10;;;;;;;20.77;99.97;100455.38;4996478;28;20457;-60
2021/07/25 05:40:31;;;;;;;46.43;31.63;;;;;;;20.78;99.61;100457.13;4992708;28;20478;-60
2021/07/25 05:42:58;;;;;;;43.07;29.53;;;;;;;20.70;99.94;100458.03;4996321;28;20490;-60
2021/07/25 05:45:31;;;;;;;43.97;30.23;;;;;;;20.67;99.57;100447.56;4992916;28;20486;-60
2021/07/25 05:47:58;;;;;;;47.80;31.50;;;;;;;20.74;99.79;100455.41;4996400;28;20472;-59
2021/07/25 05:50:26;;;;;;;46.53;31.30;;;;;;;20.82;99.18;100459.72;4992957;28;20512;-59
2021/07/25 05:52:55;;;;;;;47.50;29.90;;;;;;;20.72;98.65;100462.38;4996118;28;20873;-60
2021/07/25 05:55:24;;;;;;;46.40;32.00;;;;;;;20.69;99.34;100467.66;4992610;28;20490;-59
2021/07/25 05:57:52;;;;;;;48.67;30.73;;;;;;;20.97;98.33;100469.31;4995475;28;20458;-59
2021/07/25 06:00:20;;;;;;;51.00;31.80;;;;;;;20.96;97.43;100465.78;4992371;28;20490;-59
2021/07/25 06:02:53;;;;;;;45.30;30.97;;;;;;;21.01;97.48;100463.13;4996019;28;20493;-60
2021/07/25 06:05:21;;;;;;;44.50;30.37;;;;;;;21.03;96.85;100477.13;4984841;28;20506;-59
2021/07/25 06:07:49;;;;;;;50.30;31.47;;;;;;;21.10;96.99;100473.59;4998579;28;20470;-59
2021/07/25 06:10:17;;;;;;;46.63;31.17;;;;;;;21.06;97.65;100471.84;4992829;28;20488;-59
2021/07/25 06:12:45;;;;;;;44.20;30.40;;;;;;;21.21;96.86;100470.03;4995678;28;20896;-59
2021/07/25 06:15:13;;;;;;;41.53;29.00;;;;;;;21.26;96.81;100468.22;4992748;28;20488;-60
2021/07/25 06:17:41;;;;;;;39.70;30.37;;;;;;;21.53;96.36;100466.28;4995556;28;20466;-59
2021/07/25 06:20:11;;;;;;;43.47;29.90;;;;;;;21.50;95.76;100476.78;4989605;28;20474;-59
2021/07/25 06:22:40;;;;;;;43.80;29.53;;;;;;;21.58;95.28;100482.84;4995807;28;20962;-60
2021/07/25 06:25:08;;;;;;;45.70;30.60;;;;;;;21.36;95.51;100474.25;4984623;28;20485;-60
2021/07/25 06:27:36;;;;;;;44.20;30.07;;;;;;;21.68;94.39;100473.13;5002621;28;20458;-60
2021/07/25 06:30:06;;;;;;;38.83;28.00;;;;;;;21.87;92.93;100476.50;4996827;28;20497;-59
2021/07/25 06:32:58;;;;;;;45.33;28.40;;;;;;;22.12;91.55;100476.25;5015130;28;20453;-60
2021/07/25 06:35:29;;;;;;;40.00;27.33;;;;;;;22.05;92.62;100485.09;5011685;28;20477;-60
2021/07/25 06:37:58;;;;;;;41.00;27.87;;;;;;;22.16;91.03;100474.47;5015319;28;20564;-60
2021/07/25 06:40:26;;;;;;;38.00;26.43;;;;;;;22.26;91.08;100474.34;5010953;28;20489;-59
2021/07/25 06:42:54;;;;;;;37.27;26.73;;;;;;;22.30;91.13;100474.31;5015277;28;20762;-60
2021/07/25 06:45:22;;;;;;;38.33;26.30;;;;;;;22.29;90.79;100473.44;5012040;28;20484;-60
2021/07/25 06:47:50;;;;;;;43.13;26.93;;;;;;;22.54;90.08;100478.41;5014847;28;20461;-60
2021/07/25 06:50:18;;;;;;;36.97;25.80;;;;;;;22.45;88.90;100474.13;5008593;28;20497;-60
2021/07/25 06:52:47;;;;;;;39.07;27.63;;;;;;;22.60;88.73;100478.34;5014731;28;20462;-60
2021/07/25 06:55:15;;;;;;;34.50;25.87;;;;;;;22.50;88.18;100476.69;5005571;28;20489;-60
2021/07/25 06:57:43;;;;;;;34.47;24.40;;;;;;;22.73;86.97;100476.44;5015077;28;20453;-60
2021/07/25 07:00:11;;;;;;;31.57;23.43;;;;;;;22.41;87.62;100482.94;4990934;28;20497;-60
2021/07/25 07:02:46;;;;;;;36.20;25.40;;;;;;;22.40;87.43;100481.19;5015004;28;20481;-60
2021/07/25 07:05:14;;;;;;;35.67;23.73;;;;;;;22.48;86.06;100484.59;5011912;28;20800;-60
2021/07/25 07:07:42;;;;;;;31.90;22.50;;;;;;;22.46;86.47;100485.50;5014305;28;20461;-60
2021/07/25 07:10:11;;;;;;;31.70;23.03;;;;;;;22.59;86.80;100489.75;5013675;28;20488;-59
2021/07/25 07:12:39;;;;;;;33.60;23.80;;;;;;;22.47;86.68;100488.13;5019052;28;20457;-60
2021/07/25 07:15:08;;;;;;;32.80;23.33;;;;;;;22.37;85.73;100489.97;5008946;28;20488;-60
2021/07/25 07:17:37;;;;;;;32.13;23.33;;;;;;;22.60;85.39;100482.75;5018752;28;20480;-60
2021/07/25 07:20:06;;;;;;;29.70;21.70;;;;;;;22.51;85.41;100484.59;5007709;28;20508;-60
2021/07/25 07:22:34;;;;;;;29.10;21.40;;;;;;;22.59;85.29;100486.25;5018784;28;20480;-60
2021/07/25 07:25:02;;;;;;;28.77;20.47;;;;;;;22.56;83.73;100492.41;5011776;28;20538;-60
2021/07/25 07:27:32;;;;;;;31.73;21.53;;;;;;;22.50;84.02;100480.19;5018443;28;20463;-60
2021/07/25 07:29:59;;;;;;;34.00;21.10;;;;;;;22.60;84.51;100477.50;5004623;28;20481;-60
2021/07/25 07:32:27;;;;;;;27.90;19.60;;;;;;;22.76;82.06;100479.00;4998610;28;21034;-60
2021/07/25 07:34:55;;;;;;;23.60;17.17;;;;;;;22.63;79.42;100466.94;4987139;28;20470;-60
2021/07/25 07:37:22;;;;;;;24.20;17.67;;;;;;;22.82;80.59;100472.81;4998649;28;20499;-60
2021/07/25 07:39:51;;;;;;;29.73;19.07;;;;;;;23.14;80.54;100473.22;4985818;28;20508;-61
2021/07/25 07:42:18;;;;;;;24.53;18.80;;;;;;;23.15;80.30;100474.97;5009901;28;20766;-60
2021/07/25 07:44:47;;;;;;;30.43;20.70;;;;;;;23.22;80.86;100473.13;4994436;28;20479;-60
2021/07/25 07:47:15;;;;;;;31.83;20.13;;;;;;;23.23;80.15;100475.75;4997757;28;20801;-60
2021/07/25 07:49:42;;;;;;;28.93;20.63;;;;;;;23.43;80.09;100475.44;4974534;28;20477;-60
2021/07/25 07:52:10;;;;;;;34.97;24.80;;;;;;;23.49;78.66;100476.22;4999065;28;20517;-60
2021/07/25 07:54:38;;;;;;;33.20;23.30;;;;;;;23.37;78.09;100469.41;4998855;28;20585;-60
2021/07/25 07:57:05;;;;;;;29.40;19.00;;;;;;;23.29;77.66;100470.34;4998410;28;20465;-60
2021/07/25 07:59:33;;;;;;;56.43;39.63;;;;;;;23.53;77.46;100476.16;4998532;28;20782;-60
2021/07/25 08:02:02;;;;;;;25.40;18.13;;;;;;;23.42;76.24;100470.19;4986217;28;20809;-60
2021/07/25 08:04:30;;;;;;;24.30;17.43;;;;;;;23.29;77.68;100472.97;4991537;28;20551;-60
2021/07/25 08:06:57;;;;;;;41.13;29.43;;;;;;;23.41;76.66;100478.97;4997507;28;20550;-60
2021/07/25 08:09:25;;;;;;;28.30;18.80;;;;;;;23.18;76.94;100480.19;4995027;28;20482;-60
2021/07/25 08:11:53;;;;;;;27.70;20.00;;;;;;;23.59;76.32;100481.31;4997955;28;20478;-60
2021/07/25 08:14:21;;;;;;;26.83;19.80;;;;;;;23.82;75.95;100487.06;4990658;28;20601;-60
2021/07/25 08:16:49;;;;;;;29.47;21.50;;;;;;;23.89;74.88;100487.84;4997571;28;20466;-60
2021/07/25 08:19:18;;;;;;;28.20;18.23;;;;;;;23.86;72.90;100479.13;4993908;28;20497;-60
2021/07/25 08:21:45;;;;;;;30.00;18.63;;;;;;;24.05;72.53;100483.16;4999631;28;20509;-60
2021/07/25 08:24:13;;;;;;;35.90;23.27;;;;;;;23.84;72.19;100483.50;4994052;28;20490;-61
2021/07/25 08:26:40;;;;;;;23.37;18.07;;;;;;;24.10;72.11;100482.19;4997138;28;20462;-60
2021/07/25 08:29:11;;;;;;;26.20;18.77;;;;;;;23.98;71.67;100492.94;4994302;28;20544;-60
2021/07/25 08:31:39;;;;;;;21.33;15.90;;;;;;;23.99;72.60;100489.41;5009920;28;20591;-60
2021/07/25 08:34:07;;;;;;;54.80;36.73;;;;;;;24.40;71.82;100484.25;4990259;28;20478;-60
2021/07/25 08:36:36;;;;;;;25.13;17.70;;;;;;;24.64;70.13;100488.16;4996760;28;20471;-60
2021/07/25 08:39:04;;;;;;;34.07;22.80;;;;;;;24.68;69.67;100484.53;4993957;28;20500;-60
2021/07/25 08:41:38;;;;;;;28.57;21.07;;;;;;;24.78;69.54;100487.00;4997309;28;20478;-60
2021/07/25 08:44:19;;;;;;;23.60;16.70;;;;;;;24.89;69.98;100477.13;4993273;28;20760;-60
2021/07/25 08:46:47;;;;;;;23.27;16.40;;;;;;;24.65;70.81;100500.44;4997176;28;20495;-60
2021/07/25 08:49:18;;;;;;;20.17;15.80;;;;;;;24.46;70.93;100493.81;4993074;28;20486;-61
2021/07/25 08:51:59;;;;;;;25.03;17.80;;;;;;;24.46;69.29;100497.31;4996719;28;20751;-60
2021/07/25 08:54:29;;;;;;;22.77;16.07;;;;;;;24.45;70.12;100495.56;4993200;28;20554;-60
2021/07/25 08:56:59;;;;;;;24.00;15.30;;;;;;;24.46;68.92;100494.66;4996911;28;20467;-61
2021/07/25 08:59:30;;;;;;;21.57;15.47;;;;;;;24.82;66.78;100486.06;4989481;28;20947;-60
2021/07/25 09:02:00;;;;;;;22.30;14.67;;;;;;;24.74;68.15;100495.88;4996743;28;20481;-60
2021/07/25 09:04:28;;;;;;;22.73;16.07;;;;;;;24.79;68.79;100481.69;4992196;28;20490;-60
2021/07/25 09:06:59;;;;;;;22.93;17.40;;;;;;;24.76;66.50;100488.81;4996623;28;20473;-61
2021/07/25 09:09:27;;;;;;;27.43;17.83;;;;;;;25.05;67.39;100489.94;4991475;28;20493;-60
2021/07/25 09:11:55;;;;;;;25.70;18.17;;;;;;;25.00;68.31;100483.91;4996855;28;20478;-60
2021/07/25 09:14:23;;;;;;;26.10;18.13;;;;;;;25.15;66.13;100478.28;4990013;28;20486;-60
2021/07/25 09:16:50;;;;;;;37.50;23.70;;;;;;;24.93;62.88;100484.03;4996510;28;20458;-61
2021/07/25 09:19:18;;;;;;;47.33;26.53;;;;;;;25.12;62.43;100470.41;4990199;28;20489;-60
2021/07/25 09:21:47;;;;;;;32.20;20.43;;;;;;;25.34;63.82;100475.19;4996578;28;20482;-60
2021/07/25 09:24:22;;;;;;;23.60;17.07;;;;;;;25.15;65.97;100475.63;4989493;28;20491;-60
2021/07/25 09:26:56;;;;;;;26.63;18.23;;;;;;;25.04;65.56;100483.81;4996157;28;20477;-59
2021/07/25 09:29:26;;;;;;;32.13;23.73;;;;;;;25.48;65.21;100473.06;4995841;28;20504;-60
2021/07/25 09:32:10;;;;;;;20.90;15.73;;;;;;;25.59;65.54;100477.25;4999450;28;20817;-60
2021/07/25 09:34:39;;;;;;;42.17;27.30;;;;;;;25.42;62.46;100470.59;4991997;28;20478;-61
2021/07/25 09:37:08;;;;;;;28.30;17.77;;;;;;;25.55;61.62;100468.56;4995741;28;20935;-60
2021/07/25 09:39:39;;;;;;;21.53;15.23;;;;;;;25.60;62.67;100476.34;4979825;28;20792;-60
2021/07/25 09:42:08;;;;;;;20.53;13.53;;;;;;;25.75;59.56;100481.22;4977524;28;20590;-60
2021/07/25 09:44:50;;;;;;;24.00;17.03;;;;;;;26.13;58.21;100469.66;4972881;28;20941;-60
2021/07/25 09:47:33;;;;;;;16.33;11.27;;;;;;;26.32;59.58;100469.19;4975779;28;20467;-62
2021/07/25 09:50:02;;;;;;;23.20;15.80;;;;;;;26.15;58.33;100470.50;4976819;28;20482;-60
2021/07/25 09:52:31;;;;;;;19.70;13.90;;;;;;;26.29;57.87;100473.66;4972459;28;20783;-60
2021/07/25 09:55:01;;;;;;;34.30;22.93;;;;;;;26.29;57.34;100467.47;4977329;28;20463;-60
2021/07/25 09:57:29;;;;;;;17.17;12.33;;;;;;;26.02;59.17;100486.69;4973178;28;20949;-61
2021/07/25 09:59:58;;;;;;;31.60;19.10;;;;;;;25.93;56.41;100468.44;4977006;28;20499;-60
2021/07/25 10:02:37;;;;;;;17.90;12.33;;;;;;;26.29;56.44;100475.41;4973831;28;20567;-60
2021/07/25 10:05:10;;;;;;;24.47;16.17;;;;;;;26.67;55.12;100472.56;4977541;28;20490;-60
2021/07/25 10:07:38;;;;;;;19.70;13.60;;;;;;;26.76;55.63;100466.97;4973026;28;20462;-61
2021/07/25 10:10:10;;;;;;;16.23;11.53;;;;;;;26.33;55.31;100473.53;4976763;28;20490;-60
2021/07/25 10:12:38;;;;;;;24.20;16.70;;;;;;;26.45;53.42;100472.34;4974302;28;20485;-60
2021/07/25 10:15:09;;;;;;;18.60;12.17;;;;;;;26.53;54.60;100468.56;4976834;28;20546;-60
2021/07/25 10:17:38;;;;;;;25.20;14.90;;;;;;;26.56;54.22;100468.47;4973901;28;20463;-60
2021/07/25 10:20:07;;;;;;;46.80;32.17;;;;;;;27.02;53.73;100473.28;4977246;28;20510;-61
2021/07/25 10:22:37;;;;;;;25.07;17.87;;;;;;;27.01;53.63;100474.19;4973985;28;20465;-61
2021/07/25 10:25:08;;;;;;;19.90;13.43;;;;;;;26.78;55.01;100478.41;4988494;28;20491;-60
2021/07/25 10:27:36;;;;;;;21.07;13.13;;;;;;;26.86;53.96;100472.84;4992803;28;20553;-62
2021/07/25 10:30:06;;;;;;;18.00;12.40;;;;;;;27.04;51.14;100475.88;4995582;28;20483;-60
2021/07/25 10:32:37;;;;;;;16.10;12.03;;;;;;;27.16;50.07;100477.28;4984085;28;20546;-61
2021/07/25 10:35:06;;;;;;;19.97;13.13;;;;;;;27.02;52.48;100481.22;4996657;28;20733;-60
2021/07/25 10:37:37;;;;;;;19.23;13.60;;;;;;;26.83;52.93;100481.75;4992586;28;20892;-60
2021/07/25 10:40:10;;;;;;;26.23;16.67;;;;;;;27.06;53.07;100481.97;4996197;28;21022;-61
2021/07/25 10:42:41;;;;;;;22.43;16.70;;;;;;;27.00;52.54;100479.53;4991577;28;21447;-61
2021/07/25 10:45:10;;;;;;;22.67;16.33;;;;;;;27.00;52.34;100474.22;4996168;28;20496;-60
2021/07/25 10:47:38;;;;;;;23.90;17.00;;;;;;;27.36;52.75;100472.19;4992089;28;20947;-61
2021/07/25 10:50:07;;;;;;;23.00;15.80;;;;;;;27.36;51.89;100474.84;4996137;28;20482;-61
2021/07/25 10:53:05;;;;;;;15.97;12.53;;;;;;;27.33;52.21;100476.72;4991413;28;20462;-60
2021/07/25 10:55:51;;;;;;;23.90;16.57;;;;;;;27.47;49.94;100470.94;4995914;28;20455;-61
2021/07/25 10:58:20;;;;;;;16.40;11.87;;;;;;;27.69;50.63;100475.56;4992911;28;20490;-60
2021/07/25 11:00:53;;;;;;;20.60;13.10;;;;;;;27.44;52.12;100477.25;4995673;28;20496;-61
2021/07/25 11:03:43;;;;;;;20.53;14.87;;;;;;;26.83;52.07;100473.81;4992759;28;20549;-61
2021/07/25 11:06:17;;;;;;;20.13;13.90;;;;;;;27.18;52.65;100467.50;4995253;28;20496;-60
2021/07/25 11:08:47;;;;;;;18.73;13.10;;;;;;;27.52;52.15;100474.31;4992482;28;20966;-60
2021/07/25 11:11:51;;;;;;;20.37;15.10;;;;;;;27.50;49.33;100471.75;4995836;28;20486;-60
2021/07/25 11:14:59;;;;;;;25.50;18.60;;;;;;;27.96;50.02;100467.56;4992551;28;20488;-60
2021/07/25 11:17:55;;;;;;;19.43;13.20;;;;;;;27.92;46.92;100469.47;4992631;28;20467;-61
2021/07/25 11:20:39;;;;;;;16.27;11.47;;;;;;;27.82;49.76;100474.22;4995692;28;20513;-60